Terminal Aerodrome Forecast
Issued by NWS Sterling, VA

Current Version | Previous Version | Graphics & Text | Print | Product List | Glossary On
Versions: 1 2 3 4 5 6 7 8 9 10 11 12 13 14 15 16 17 18 19 20 21 22 23 24 25 26 27 28 29 30
000
FTUS41 KLWX 201136
TAFDCA
TAF
KDCA 201136Z 2012/2112 19007KT P6SM SCT008 OVC015
     FM201700 20010KT P6SM BKN060
     FM202000 20011G20KT P6SM VCTS BKN045CB
     FM210000 21009KT P6SM -SHRA BKN045
     FM210100 21009KT P6SM BKN045
     FM210700 26007KT P6SM SCT050=

USA.gov is the U.S. government's official web portal to all federal, state and local government web resources and services.